Time;durP1;ratioP1;P1;durP2;ratioP2;P2;SDS_P1;SDS_P2;PMS_P1;PMS_P2;Temp;Humidity;BMP_temperature;BMP_pressure;BME280_temperature;BME280_humidity;BME280_pressure;Samples;Min_cycle;Max_cycle;Signal;HPM_P1;HPM_P2
2021/03/08 00:01:12;;;;;;;3.42;3.00;;;17.70;50.00;;;;;;5127629;27;20206;-51
2021/03/08 00:03:38;;;;;;;3.60;3.25;;;17.70;50.00;;;;;;5127808;27;20179;-55
2021/03/08 00:06:04;;;;;;;3.40;3.10;;;17.70;50.00;;;;;;5127700;27;20204;-55
2021/03/08 00:08:29;;;;;;;3.28;2.97;;;17.70;50.10;;;;;;5127787;27;20578;-53
2021/03/08 00:10:55;;;;;;;3.45;3.15;;;17.70;50.00;;;;;;5128006;27;20512;-55
2021/03/08 00:13:20;;;;;;;3.60;3.30;;;17.70;50.00;;;;;;5127641;27;20543;-55
2021/03/08 00:15:46;;;;;;;4.07;3.65;;;17.70;50.10;;;;;;5127566;27;20198;-56
2021/03/08 00:18:12;;;;;;;3.90;3.60;;;17.70;50.10;;;;;;5127784;27;20177;-57
2021/03/08 00:20:37;;;;;;;3.38;3.08;;;17.60;50.00;;;;;;5127628;27;20243;-59
2021/03/08 00:23:03;;;;;;;3.65;3.35;;;17.60;50.10;;;;;;5127294;27;20225;-57
2021/03/08 00:25:30;;;;;;;3.22;3.03;;;17.60;50.00;;;;;;5127375;27;20183;-55
2021/03/08 00:27:56;;;;;;;3.75;3.40;;;17.60;50.10;;;;;;5127607;27;20661;-56
2021/03/08 00:30:22;;;;;;;3.55;3.25;;;17.60;50.10;;;;;;5127637;27;20207;-55
2021/03/08 00:32:47;;;;;;;3.22;2.95;;;17.60;50.10;;;;;;5126959;27;20629;-54
2021/03/08 00:35:13;;;;;;;3.50;3.20;;;17.50;50.10;;;;;;5127606;27;21015;-55
2021/03/08 00:37:39;;;;;;;3.92;3.63;;;17.50;50.10;;;;;;5109084;27;20180;-53
2021/03/08 00:40:07;;;;;;;4.10;3.80;;;17.50;50.10;;;;;;5127368;27;20228;-57
2021/03/08 00:42:33;;;;;;;3.95;3.65;;;17.50;50.10;;;;;;5127182;27;20177;-57
2021/03/08 00:44:58;;;;;;;3.75;3.45;;;17.40;50.00;;;;;;5127291;27;20177;-54
2021/03/08 00:47:24;;;;;;;3.95;3.60;;;17.50;50.10;;;;;;5127204;27;20203;-57
2021/03/08 00:49:50;;;;;;;3.80;3.33;;;17.50;50.10;;;;;;5127152;27;20200;-54
2021/03/08 00:52:16;;;;;;;4.00;3.60;;;17.40;50.00;;;;;;5126962;27;20183;-55
2021/03/08 00:54:41;;;;;;;3.88;3.58;;;17.40;50.00;;;;;;5126664;27;20173;-51
2021/03/08 00:57:07;;;;;;;3.95;3.65;;;17.40;50.00;;;;;;5126847;27;20946;-53
2021/03/08 00:59:33;;;;;;;4.25;3.95;;;17.40;50.00;;;;;;5126932;27;20236;-56
2021/03/08 01:01:58;;;;;;;3.90;3.50;;;17.40;50.00;;;;;;5126756;27;20584;-56
2021/03/08 01:04:24;;;;;;;3.92;3.63;;;17.40;50.00;;;;;;5126205;27;20173;-48
2021/03/08 01:06:49;;;;;;;4.10;3.75;;;17.30;50.00;;;;;;5126445;27;20196;-53
2021/03/08 01:09:15;;;;;;;3.97;3.67;;;17.40;50.00;;;;;;5126596;27;20208;-55
2021/03/08 01:11:42;;;;;;;4.07;3.72;;;17.30;50.00;;;;;;5126457;27;20193;-55
2021/03/08 01:14:08;;;;;;;4.00;3.70;;;17.30;50.00;;;;;;5125897;27;20168;-53
2021/03/08 01:16:34;;;;;;;4.20;3.80;;;17.30;50.00;;;;;;5126436;27;20164;-51
2021/03/08 01:18:59;;;;;;;5.28;4.28;;;17.30;50.00;;;;;;5126298;27;20194;-52
2021/03/08 01:21:25;;;;;;;5.00;4.40;;;17.30;50.00;;;;;;5126240;27;20257;-58
2021/03/08 01:23:50;;;;;;;4.05;3.75;;;17.30;50.00;;;;;;5126215;27;20176;-59
2021/03/08 01:26:16;;;;;;;4.20;3.90;;;17.30;50.00;;;;;;5126210;27;20178;-52
2021/03/08 01:28:41;;;;;;;4.82;4.43;;;17.30;50.00;;;;;;5126140;27;20283;-54
2021/03/08 01:31:07;;;;;;;4.40;4.00;;;17.20;49.90;;;;;;5126048;27;20204;-51
2021/03/08 01:33:32;;;;;;;4.45;4.03;;;17.30;50.00;;;;;;5125975;27;20636;-53
2021/03/08 01:35:58;;;;;;;5.70;4.22;;;17.30;50.50;;;;;;5125906;27;20570;-54
2021/03/08 01:38:23;;;;;;;4.47;4.07;;;17.20;49.80;;;;;;5126112;27;20200;-53
2021/03/08 01:40:49;;;;;;;4.35;4.05;;;17.20;49.90;;;;;;5125331;27;20217;-52
2021/03/08 01:43:14;;;;;;;4.13;3.80;;;17.20;49.90;;;;;;5125563;27;20180;-56
2021/03/08 01:45:40;;;;;;;4.85;4.45;;;17.20;49.80;;;;;;5125357;27;20183;-54
2021/03/08 01:48:06;;;;;;;4.55;4.15;;;17.20;49.90;;;;;;5125714;27;20267;-53
2021/03/08 01:50:36;;;;;;;4.40;4.00;;;17.20;49.90;;;;;;5125738;27;20180;-56
2021/03/08 01:53:06;;;;;;;4.57;4.20;;;17.20;49.90;;;;;;5125640;27;20172;-53
2021/03/08 01:55:32;;;;;;;4.38;4.00;;;17.10;49.80;;;;;;5125720;27;20173;-56
2021/03/08 01:57:58;;;;;;;4.53;4.22;;;17.10;49.80;;;;;;5125485;27;20610;-55
2021/03/08 02:00:24;;;;;;;4.25;3.95;;;17.10;49.80;;;;;;5125571;27;20594;-52
2021/03/08 02:02:50;;;;;;;4.65;4.28;;;17.10;49.80;;;;;;5125640;27;20683;-51
2021/03/08 02:05:17;;;;;;;4.43;4.03;;;17.10;49.80;;;;;;5125386;27;20168;-54
2021/03/08 02:07:42;;;;;;;4.72;4.32;;;17.10;49.80;;;;;;5125249;27;20188;-56
2021/03/08 02:10:12;;;;;;;4.93;4.53;;;17.10;49.80;;;;;;5125517;27;20207;-52
2021/03/08 02:12:47;;;;;;;4.40;4.00;;;17.10;49.80;;;;;;5125421;27;20176;-53
2021/03/08 02:15:33;;;;;;;4.80;4.40;;;17.00;49.70;;;;;;5125559;27;20186;-55
2021/03/08 02:18:11;;;;;;;4.60;4.20;;;17.00;49.80;;;;;;5110065;27;20593;-50
2021/03/08 02:21:09;;;;;;;4.00;3.70;;;17.00;49.70;;;;;;5108803;27;20215;-55
2021/03/08 02:24:12;;;;;;;4.97;4.57;;;17.00;49.70;;;;;;5108197;27;20172;-55
2021/03/08 02:26:51;;;;;;;4.80;4.40;;;17.00;49.80;;;;;;5124407;27;20318;-56
2021/03/08 02:29:48;;;;;;;5.00;4.60;;;17.00;49.80;;;;;;5108538;27;20203;-51
2021/03/08 02:32:13;;;;;;;4.57;4.18;;;17.00;49.80;;;;;;5106775;28;20176;-49
2021/03/08 02:34:44;;;;;;;4.90;4.40;;;17.00;49.80;;;;;;5106284;27;20229;-49
2021/03/08 02:37:15;;;;;;;4.82;4.47;;;17.00;49.70;;;;;;5107188;28;20176;-52
2021/03/08 02:39:44;;;;;;;4.72;4.32;;;17.00;49.70;;;;;;5125071;27;20691;-52
2021/03/08 02:42:13;;;;;;;4.88;4.47;;;16.90;49.70;;;;;;5107420;28;20259;-56
2021/03/08 02:44:38;;;;;;;5.18;4.70;;;16.90;49.70;;;;;;5090410;28;20192;-56
2021/03/08 02:47:04;;;;;;;4.97;4.57;;;16.90;49.80;;;;;;5106661;28;20629;-55
2021/03/08 02:49:30;;;;;;;4.88;4.45;;;16.90;49.80;;;;;;5106662;28;20539;-57
2021/03/08 02:52:08;;;;;;;4.63;4.22;;;16.90;49.80;;;;;;5106391;28;20176;-55
2021/03/08 02:54:34;;;;;;;4.68;4.28;;;16.90;49.80;;;;;;5107212;28;20563;-56
2021/03/08 02:57:04;;;;;;;4.68;4.28;;;16.90;49.80;;;;;;5089293;28;20180;-53
2021/03/08 02:59:34;;;;;;;4.80;4.40;;;16.90;49.80;;;;;;5089710;28;20184;-49
2021/03/08 03:02:00;;;;;;;4.40;4.10;;;16.90;49.80;;;;;;5106711;28;20180;-51
2021/03/08 03:04:26;;;;;;;4.88;4.47;;;16.90;49.80;;;;;;5089495;28;20215;-54
2021/03/08 03:06:51;;;;;;;4.95;4.53;;;16.90;49.80;;;;;;5106347;28;20234;-51
2021/03/08 03:09:18;;;;;;;4.80;4.40;;;16.90;49.80;;;;;;5089208;28;20204;-55
2021/03/08 03:11:46;;;;;;;4.93;4.53;;;16.80;49.80;;;;;;5124565;28;20172;-56
2021/03/08 03:14:12;;;;;;;5.03;4.63;;;16.80;49.80;;;;;;5089880;28;20230;-52
2021/03/08 03:16:38;;;;;;;5.38;4.90;;;16.80;49.70;;;;;;5106509;28;20185;-51
2021/03/08 03:19:04;;;;;;;4.85;4.45;;;16.80;49.80;;;;;;5106437;28;20168;-51
2021/03/08 03:21:32;;;;;;;5.07;4.68;;;16.80;49.80;;;;;;5089225;28;20184;-56
2021/03/08 03:23:57;;;;;;;5.07;4.68;;;16.80;49.80;;;;;;5105949;28;20176;-56
2021/03/08 03:26:23;;;;;;;5.00;4.60;;;16.80;49.80;;;;;;5089051;28;20202;-53
2021/03/08 03:28:49;;;;;;;5.38;4.97;;;16.80;49.80;;;;;;5123838;28;20204;-54
2021/03/08 03:31:16;;;;;;;4.85;4.45;;;16.80;49.80;;;;;;5105797;28;20183;-52
2021/03/08 03:33:43;;;;;;;5.63;5.13;;;16.80;49.80;;;;;;5106133;28;20184;-53
2021/03/08 03:36:09;;;;;;;5.90;5.38;;;16.70;49.80;;;;;;5106392;28;20168;-53
2021/03/08 03:38:35;;;;;;;4.65;4.25;;;16.70;49.80;;;;;;5127032;27;20180;-50
2021/03/08 03:41:01;;;;;;;4.93;4.53;;;16.80;49.80;;;;;;5092793;27;20181;-52
2021/03/08 03:43:26;;;;;;;5.85;5.00;;;16.70;49.80;;;;;;5128171;27;20925;-51
2021/03/08 03:45:52;;;;;;;5.32;4.82;;;16.70;49.80;;;;;;5109755;27;20175;-51
2021/03/08 03:48:18;;;;;;;5.20;4.80;;;16.70;49.80;;;;;;5109842;27;20180;-56
2021/03/08 03:50:44;;;;;;;5.47;4.97;;;16.70;49.80;;;;;;5128135;27;20238;-50
2021/03/08 03:53:09;;;;;;;5.45;5.05;;;16.70;49.80;;;;;;5127894;27;20252;-56
2021/03/08 03:55:35;;;;;;;5.13;4.72;;;16.70;49.80;;;;;;5128089;27;20602;-51
2021/03/08 03:58:10;;;;;;;4.93;4.53;;;16.70;49.90;;;;;;5128133;27;20248;-52
2021/03/08 04:01:00;;;;;;;5.43;4.93;;;16.70;49.80;;;;;;5093325;27;20186;-54
2021/03/08 04:03:30;;;;;;;5.50;5.10;;;16.60;49.80;;;;;;5109614;27;20622;-48
2021/03/08 04:05:57;;;;;;;5.13;4.72;;;16.60;49.80;;;;;;5109498;27;20183;-54
2021/03/08 04:08:24;;;;;;;5.57;5.13;;;16.60;49.80;;;;;;5109201;27;21049;-56
2021/03/08 04:10:54;;;;;;;5.68;5.15;;;16.60;49.80;;;;;;5109281;27;20222;-56
2021/03/08 04:13:21;;;;;;;5.57;5.18;;;16.60;49.90;;;;;;5093126;27;20169;-51
2021/03/08 04:15:46;;;;;;;4.97;4.57;;;16.60;49.90;;;;;;5092240;27;20181;-53
2021/03/08 04:18:12;;;;;;;5.78;5.25;;;16.60;49.90;;;;;;5092083;27;20184;-56
2021/03/08 04:20:38;;;;;;;6.15;5.55;;;16.60;49.90;;;;;;5109337;27;20183;-54
2021/03/08 04:23:05;;;;;;;5.70;5.20;;;16.60;49.80;;;;;;5091925;27;20536;-56
2021/03/08 04:25:32;;;;;;;6.13;5.63;;;16.60;49.90;;;;;;5109391;27;20249;-54
2021/03/08 04:27:57;;;;;;;5.55;5.05;;;16.60;49.90;;;;;;5109315;27;20370;-52
2021/03/08 04:30:23;;;;;;;5.50;5.00;;;16.50;49.90;;;;;;5109058;27;20275;-55
2021/03/08 04:32:51;;;;;;;5.78;5.28;;;16.50;49.90;;;;;;5091886;27;20176;-52
2021/03/08 04:35:18;;;;;;;5.18;4.78;;;16.50;49.90;;;;;;5091998;27;20183;-48
2021/03/08 04:37:43;;;;;;;5.60;5.10;;;16.60;49.90;;;;;;5108964;27;20169;-53
2021/03/08 04:40:12;;;;;;;6.07;5.53;;;16.50;49.90;;;;;;5091858;27;20245;-51
2021/03/08 04:42:37;;;;;;;5.53;5.03;;;16.60;50.00;;;;;;5108894;27;20176;-55
2021/03/08 04:45:03;;;;;;;5.57;5.07;;;16.50;49.90;;;;;;5108820;27;20234;-53
2021/03/08 04:47:29;;;;;;;5.72;5.22;;;16.50;49.90;;;;;;5126880;27;21007;-55
2021/03/08 04:49:54;;;;;;;5.75;5.28;;;16.50;49.90;;;;;;5090738;27;20323;-53
2021/03/08 04:52:21;;;;;;;5.80;5.30;;;16.50;50.00;;;;;;5108198;27;20202;-52
2021/03/08 04:54:47;;;;;;;5.50;5.10;;;16.50;49.90;;;;;;5108475;27;20173;-54
2021/03/08 04:57:16;;;;;;;5.90;5.30;;;16.40;49.90;;;;;;5126820;27;20632;-51
2021/03/08 04:59:42;;;;;;;5.38;4.97;;;16.50;50.00;;;;;;5108858;27;20184;-53
2021/03/08 05:02:09;;;;;;;6.07;5.47;;;16.40;49.90;;;;;;5126544;27;20176;-50
2021/03/08 05:04:37;;;;;;;5.97;5.47;;;16.40;49.90;;;;;;5126836;27;20207;-50
2021/03/08 05:07:02;;;;;;;6.05;5.57;;;16.40;50.00;;;;;;5091520;27;20214;-56
2021/03/08 05:09:28;;;;;;;6.05;5.55;;;16.40;49.90;;;;;;5108737;27;20204;-51
2021/03/08 05:11:54;;;;;;;5.82;5.32;;;16.40;49.90;;;;;;5091484;27;20279;-54
2021/03/08 05:14:20;;;;;;;5.95;5.40;;;16.40;50.00;;;;;;5108132;27;20200;-54
2021/03/08 05:16:46;;;;;;;6.07;5.53;;;16.40;50.00;;;;;;5126725;27;20169;-51
2021/03/08 05:19:12;;;;;;;6.40;5.75;;;16.40;50.00;;;;;;5091418;27;20191;-56
2021/03/08 05:21:38;;;;;;;5.50;5.05;;;16.40;50.00;;;;;;5107693;27;20172;-54
2021/03/08 05:24:04;;;;;;;6.22;5.72;;;16.40;50.00;;;;;;5126281;27;20258;-55
2021/03/08 05:26:29;;;;;;;5.97;5.47;;;16.40;50.00;;;;;;5126304;27;20186;-55
2021/03/08 05:28:56;;;;;;;5.93;5.43;;;16.40;50.00;;;;;;5090825;27;20200;-52
2021/03/08 05:31:22;;;;;;;5.75;5.35;;;16.40;50.00;;;;;;5126026;27;20276;-55
2021/03/08 05:33:51;;;;;;;5.95;5.30;;;16.30;50.00;;;;;;5126099;27;20181;-51
2021/03/08 05:36:18;;;;;;;5.82;5.35;;;16.40;50.00;;;;;;5126019;27;20180;-51
2021/03/08 05:38:44;;;;;;;5.43;4.95;;;16.30;49.90;;;;;;5107611;27;20200;-49
2021/03/08 05:41:12;;;;;;;6.00;5.50;;;16.40;50.00;;;;;;5107396;27;20173;-51
2021/03/08 05:43:38;;;;;;;5.95;5.45;;;16.30;50.00;;;;;;5126263;27;20181;-56
2021/03/08 05:46:15;;;;;;;5.63;5.13;;;16.30;50.00;;;;;;5090916;27;20225;-54
2021/03/08 05:48:56;;;;;;;6.03;5.43;;;16.30;50.00;;;;;;5107433;27;20192;-53
2021/03/08 05:51:32;;;;;;;5.88;5.38;;;16.40;50.00;;;;;;5107500;27;20187;-53
2021/03/08 05:54:28;;;;;;;6.03;5.53;;;16.30;50.00;;;;;;5091189;27;20164;-53
2021/03/08 05:57:11;;;;;;;5.68;5.18;;;16.30;50.00;;;;;;5110100;27;20180;-56
2021/03/08 05:59:58;;;;;;;5.78;5.28;;;16.30;50.00;;;;;;5125259;27;20183;-52
2021/03/08 06:02:36;;;;;;;5.60;5.10;;;16.30;50.00;;;;;;5125321;27;20176;-53
2021/03/08 06:05:10;;;;;;;5.45;5.05;;;16.30;50.00;;;;;;5125277;27;20176;-53
2021/03/08 06:07:52;;;;;;;5.20;4.70;;;16.30;50.00;;;;;;5107344;27;20183;-53
2021/03/08 06:10:40;;;;;;;4.70;4.40;;;16.40;50.10;;;;;;5107574;27;20278;-49
2021/03/08 06:13:09;;;;;;;4.82;4.43;;;16.50;50.00;;;;;;5107531;27;20241;-54
2021/03/08 06:15:35;;;;;;;4.80;4.40;;;16.70;49.80;;;;;;5125359;27;20179;-51
2021/03/08 06:18:05;;;;;;;4.47;4.10;;;17.00;49.60;;;;;;5125354;27;20176;-56
2021/03/08 06:20:31;;;;;;;4.47;4.07;;;17.30;49.20;;;;;;5125288;27;20168;-53
2021/03/08 06:22:57;;;;;;;4.50;4.13;;;17.60;48.80;;;;;;5090109;27;20179;-51
2021/03/08 06:25:22;;;;;;;4.22;3.92;;;17.90;48.40;;;;;;5106561;27;20204;-56
2021/03/08 06:27:48;;;;;;;4.30;4.00;;;18.30;47.70;;;;;;5106653;27;20237;-52
2021/03/08 06:30:14;;;;;;;4.18;3.88;;;18.40;47.10;;;;;;5106553;27;20207;-53
2021/03/08 06:32:39;;;;;;;4.20;3.90;;;18.60;46.80;;;;;;5090201;28;20689;-51
2021/03/08 06:35:05;;;;;;;3.85;3.55;;;18.70;46.60;;;;;;5106777;27;20587;-56
2021/03/08 06:37:31;;;;;;;3.95;3.65;;;18.80;46.50;;;;;;5124721;27;20179;-53
2021/03/08 06:39:57;;;;;;;4.00;3.70;;;18.90;46.40;;;;;;5106889;27;20534;-56
2021/03/08 06:42:22;;;;;;;4.28;3.97;;;18.90;46.40;;;;;;5125062;28;20183;-57
2021/03/08 06:44:48;;;;;;;3.92;3.58;;;18.90;46.40;;;;;;5124930;28;20656;-59
2021/03/08 06:47:14;;;;;;;4.13;3.72;;;18.90;46.40;;;;;;5125220;28;20259;-59
2021/03/08 06:49:40;;;;;;;3.90;3.70;;;19.00;46.40;;;;;;5124491;28;20733;-55
2021/03/08 06:52:09;;;;;;;3.72;3.42;;;19.00;46.40;;;;;;5125098;28;20250;-58
2021/03/08 06:54:36;;;;;;;3.92;3.63;;;19.00;46.40;;;;;;5125123;28;20165;-57
2021/03/08 06:57:02;;;;;;;3.72;3.42;;;18.90;46.40;;;;;;5125099;28;20507;-57
2021/03/08 06:59:28;;;;;;;3.50;3.20;;;18.90;46.50;;;;;;5124509;28;20168;-55
2021/03/08 07:01:53;;;;;;;3.55;3.25;;;18.80;46.60;;;;;;5125030;28;20169;-56
2021/03/08 07:04:24;;;;;;;3.40;3.20;;;18.70;46.70;;;;;;5124664;28;20168;-56
2021/03/08 07:07:03;;;;;;;4.18;3.88;;;18.60;46.90;;;;;;5124684;28;20233;-53
2021/03/08 07:09:29;;;;;;;4.03;3.63;;;18.50;47.20;;;;;;5124807;28;20661;-53
2021/03/08 07:12:08;;;;;;;3.40;3.20;;;18.50;47.30;;;;;;5124714;27;20180;-56
2021/03/08 07:14:34;;;;;;;3.33;3.03;;;18.50;47.40;;;;;;5128721;27;20179;-54
2021/03/08 07:16:59;;;;;;;3.50;3.20;;;18.40;47.40;;;;;;5128846;27;20173;-58
2021/03/08 07:19:25;;;;;;;4.00;3.70;;;18.50;47.40;;;;;;5128919;27;20217;-54
2021/03/08 07:21:51;;;;;;;3.40;3.20;;;18.40;47.40;;;;;;5128791;27;20541;-56
2021/03/08 07:24:17;;;;;;;3.60;3.30;;;18.40;47.30;;;;;;5128546;27;20237;-56
2021/03/08 07:26:55;;;;;;;3.28;2.97;;;18.50;47.30;;;;;;5128590;27;20646;-57
2021/03/08 07:29:22;;;;;;;3.60;3.30;;;18.50;47.30;;;;;;5128116;27;20242;-58
2021/03/08 07:31:51;;;;;;;3.33;3.13;;;18.40;47.50;;;;;;5128509;27;20255;-62
2021/03/08 07:34:17;;;;;;;3.60;3.30;;;18.30;47.60;;;;;;5128153;27;20173;-61
2021/03/08 07:36:59;;;;;;;3.90;3.60;;;18.30;47.90;;;;;;5128040;27;20221;-60
2021/03/08 07:39:24;;;;;;;4.72;3.50;;;18.30;48.10;;;;;;5128407;27;20180;-61
2021/03/08 07:41:55;;;;;;;3.95;3.65;;;18.20;48.00;;;;;;5109873;27;20168;-63
2021/03/08 07:44:22;;;;;;;3.72;3.42;;;18.20;48.20;;;;;;5109837;27;20618;-64
2021/03/08 07:46:47;;;;;;;4.30;3.90;;;18.20;48.30;;;;;;5128021;27;20175;-64
2021/03/08 07:49:13;;;;;;;5.45;4.13;;;18.20;48.30;;;;;;5127932;27;20192;-66
2021/03/08 07:51:59;;;;;;;4.63;4.05;;;18.30;48.30;;;;;;5093024;27;20208;-63
2021/03/08 07:54:25;;;;;;;4.25;3.85;;;18.30;48.40;;;;;;5127932;27;20172;-61
2021/03/08 07:56:50;;;;;;;4.45;3.80;;;18.30;48.40;;;;;;5127786;27;20177;-59
2021/03/08 07:59:17;;;;;;;5.18;4.05;;;18.40;48.20;;;;;;5092588;27;20172;-58
2021/03/08 08:01:43;;;;;;;4.25;3.85;;;18.40;48.40;;;;;;5092915;27;20176;-63
2021/03/08 08:04:08;;;;;;;4.43;4.03;;;18.30;48.70;;;;;;5127682;27;20259;-62
2021/03/08 08:06:34;;;;;;;5.35;4.57;;;18.30;48.80;;;;;;5128039;27;20179;-61
2021/03/08 08:08:59;;;;;;;4.93;4.43;;;18.20;49.00;;;;;;5092420;27;20283;-64
2021/03/08 08:11:28;;;;;;;7.45;4.68;;;18.00;49.20;;;;;;5109231;27;20362;-62
2021/03/08 08:13:58;;;;;;;4.35;4.05;;;18.00;49.30;;;;;;5109169;27;20221;-63
2021/03/08 08:16:28;;;;;;;6.55;4.53;;;18.10;49.70;;;;;;5109283;27;20176;-63
2021/03/08 08:18:57;;;;;;;6.72;4.90;;;18.00;49.90;;;;;;5127961;27;20177;-62
2021/03/08 08:21:22;;;;;;;5.50;4.38;;;18.00;50.00;;;;;;5092533;27;20664;-62
2021/03/08 08:23:56;;;;;;;5.47;4.22;;;18.10;49.80;;;;;;5109219;27;20168;-62
2021/03/08 08:26:22;;;;;;;5.53;4.63;;;18.20;49.90;;;;;;5109185;27;20182;-60
2021/03/08 08:28:48;;;;;;;4.50;3.70;;;18.20;49.60;;;;;;5108954;27;20200;-64
2021/03/08 08:31:13;;;;;;;5.60;4.60;;;18.30;49.60;;;;;;5108792;27;20214;-62
2021/03/08 08:33:39;;;;;;;4.35;3.95;;;18.40;49.50;;;;;;5127377;27;20179;-60
2021/03/08 08:36:08;;;;;;;4.47;4.07;;;18.40;49.30;;;;;;5127065;27;20172;-62
2021/03/08 08:38:35;;;;;;;4.35;3.95;;;18.50;49.30;;;;;;5126959;27;20536;-61
2021/03/08 08:41:27;;;;;;;3.90;3.47;;;18.60;49.20;;;;;;5127087;27;20645;-61
2021/03/08 08:44:08;;;;;;;5.32;3.88;;;18.60;49.10;;;;;;5127327;27;20182;-61
2021/03/08 08:46:40;;;;;;;3.70;3.40;;;18.60;49.10;;;;;;5127061;27;20181;-61
2021/03/08 08:49:18;;;;;;;4.43;4.03;;;18.50;49.20;;;;;;5126971;27;20384;-61
2021/03/08 08:51:57;;;;;;;3.90;3.38;;;18.50;49.30;;;;;;5127031;27;20175;-62
2021/03/08 08:54:28;;;;;;;4.07;3.67;;;18.40;49.40;;;;;;5126739;27;20168;-63
2021/03/08 08:56:54;;;;;;;4.40;4.00;;;18.40;49.60;;;;;;5126826;27;20172;-61
2021/03/08 08:59:21;;;;;;;4.32;3.90;;;18.40;49.60;;;;;;5126974;27;20566;-60
2021/03/08 09:01:47;;;;;;;4.93;3.75;;;18.40;49.60;;;;;;5127033;27;20175;-61
2021/03/08 09:04:15;;;;;;;3.88;3.50;;;18.40;49.60;;;;;;5108195;27;20267;-59
2021/03/08 09:06:57;;;;;;;3.67;3.33;;;18.40;49.50;;;;;;5126703;27;21007;-61
2021/03/08 09:09:32;;;;;;;4.05;3.65;;;18.50;49.40;;;;;;5126568;27;20200;-64
2021/03/08 09:11:59;;;;;;;3.88;3.53;;;18.50;49.40;;;;;;5126327;27;20197;-61
2021/03/08 09:14:41;;;;;;;3.13;2.92;;;18.50;49.30;;;;;;5091256;27;20600;-61
2021/03/08 09:17:16;;;;;;;5.35;3.63;;;18.40;49.30;;;;;;5126209;27;20172;-61
2021/03/08 09:19:48;;;;;;;4.57;4.18;;;18.30;49.50;;;;;;5126181;27;20731;-61
2021/03/08 09:22:23;;;;;;;4.22;3.80;;;18.30;49.60;;;;;;5126122;27;20172;-61
2021/03/08 09:24:55;;;;;;;3.67;3.30;;;18.20;49.70;;;;;;5126156;27;20249;-64
2021/03/08 09:27:24;;;;;;;5.63;3.50;;;18.20;49.70;;;;;;5125902;27;20179;-63
2021/03/08 09:29:49;;;;;;;4.25;3.35;;;18.20;49.70;;;;;;5125770;27;20204;-63
2021/03/08 09:32:18;;;;;;;3.60;3.30;;;18.20;49.60;;;;;;5107771;27;20177;-64
2021/03/08 09:34:43;;;;;;;4.60;4.10;;;18.20;49.70;;;;;;5125546;27;20633;-60
2021/03/08 09:37:09;;;;;;;4.40;4.00;;;18.30;49.70;;;;;;5125931;27;20263;-61
2021/03/08 09:39:53;;;;;;;4.13;3.72;;;18.30;49.60;;;;;;5107398;27;20176;-61
2021/03/08 09:42:19;;;;;;;5.95;4.45;;;18.40;49.50;;;;;;5113428;27;20203;-62
2021/03/08 09:44:45;;;;;;;4.05;3.72;;;18.40;49.30;;;;;;5070128;28;20523;-62
2021/03/08 09:47:11;;;;;;;4.88;3.88;;;18.50;49.30;;;;;;5085021;28;20180;-64
2021/03/08 09:49:50;;;;;;;4.35;3.92;;;18.70;49.00;;;;;;5076542;27;20200;-63
2021/03/08 09:52:35;;;;;;;4.15;3.80;;;18.90;48.60;;;;;;5125449;27;20721;-63
2021/03/08 09:55:02;;;;;;;4.47;4.07;;;19.20;48.50;;;;;;5125736;27;20172;-62
2021/03/08 09:57:39;;;;;;;4.65;3.90;;;19.40;47.70;;;;;;5125776;27;20225;-64
2021/03/08 10:00:15;;;;;;;4.13;3.55;;;19.60;47.30;;;;;;5084494;28;20263;-63
2021/03/08 10:02:42;;;;;;;3.83;3.53;;;19.80;47.00;;;;;;5066497;28;20989;-64
2021/03/08 10:05:11;;;;;;;4.18;3.60;;;19.90;46.90;;;;;;5066609;28;20174;-63
2021/03/08 10:07:53;;;;;;;3.65;3.35;;;20.00;46.80;;;;;;5084341;28;20529;-63
2021/03/08 10:10:20;;;;;;;3.58;3.28;;;20.10;46.60;;;;;;5066525;28;20233;-62
2021/03/08 10:12:45;;;;;;;4.38;3.40;;;20.10;46.60;;;;;;5085497;28;20176;-62
2021/03/08 10:15:11;;;;;;;3.88;3.50;;;20.10;46.50;;;;;;5094066;27;20536;-63
2021/03/08 10:17:58;;;;;;;4.38;3.47;;;20.20;46.50;;;;;;5108121;27;20173;-64
2021/03/08 10:20:23;;;;;;;3.90;3.35;;;20.20;46.50;;;;;;5084427;28;20181;-63
2021/03/08 10:22:49;;;;;;;3.67;3.10;;;20.20;46.50;;;;;;5097204;27;20524;-62
2021/03/08 10:25:22;;;;;;;3.65;3.22;;;20.10;46.50;;;;;;5125870;27;20653;-64
2021/03/08 10:27:55;;;;;;;3.42;3.13;;;20.10;46.60;;;;;;5107169;27;20569;-63
2021/03/08 10:30:23;;;;;;;3.97;3.45;;;20.00;46.70;;;;;;5124889;27;20212;-62
2021/03/08 10:32:51;;;;;;;3.90;3.60;;;20.00;46.80;;;;;;5105934;27;20222;-63
2021/03/08 10:35:17;;;;;;;3.63;2.95;;;20.00;46.80;;;;;;5086241;28;20165;-62
2021/03/08 10:37:43;;;;;;;4.05;3.75;;;20.00;46.90;;;;;;5069141;28;20180;-63
2021/03/08 10:40:09;;;;;;;4.03;3.53;;;19.90;47.00;;;;;;5085905;28;20169;-64
2021/03/08 10:42:38;;;;;;;4.43;3.40;;;19.90;47.10;;;;;;5086390;28;20193;-64
2021/03/08 10:45:05;;;;;;;3.65;3.35;;;19.90;47.00;;;;;;5069199;28;20669;-64
2021/03/08 10:47:31;;;;;;;4.18;3.78;;;19.90;47.20;;;;;;5103489;28;20599;-64
2021/03/08 10:49:56;;;;;;;3.53;3.22;;;19.90;47.30;;;;;;5104785;28;20217;-63
2021/03/08 10:52:22;;;;;;;3.65;3.25;;;19.90;47.40;;;;;;5124792;28;20681;-63
2021/03/08 10:54:47;;;;;;;3.50;3.20;;;19.90;47.50;;;;;;5106499;28;20503;-63
2021/03/08 10:57:14;;;;;;;3.00;2.80;;;19.90;47.60;;;;;;5124696;28;20168;-63
2021/03/08 10:59:49;;;;;;;5.55;3.40;;;20.00;47.60;;;;;;5106501;28;20602;-62
2021/03/08 11:02:16;;;;;;;3.75;3.35;;;20.00;47.70;;;;;;5106640;28;20165;-61
2021/03/08 11:04:43;;;;;;;6.03;3.38;;;20.00;47.90;;;;;;5124398;28;20168;-64
2021/03/08 11:07:08;;;;;;;3.42;2.90;;;19.90;48.50;;;;;;5106124;28;20303;-61
2021/03/08 11:09:36;;;;;;;3.50;3.20;;;19.90;47.90;;;;;;5124346;28;20210;-63
2021/03/08 11:12:02;;;;;;;2.95;2.75;;;19.90;48.00;;;;;;5124602;28;20175;-61
2021/03/08 11:14:28;;;;;;;3.35;3.05;;;19.90;48.20;;;;;;5124299;28;20176;-63
2021/03/08 11:16:58;;;;;;;3.72;3.42;;;19.80;48.30;;;;;;5124367;28;20317;-61
2021/03/08 11:19:27;;;;;;;3.75;3.45;;;19.80;48.40;;;;;;5124495;28;20180;-64
2021/03/08 11:22:12;;;;;;;3.65;2.88;;;19.70;48.60;;;;;;5123585;28;20634;-60
2021/03/08 11:24:47;;;;;;;3.17;2.85;;;19.70;49.20;;;;;;5103952;28;20173;-63
2021/03/08 11:27:27;;;;;;;3.78;3.22;;;19.70;48.60;;;;;;5104122;28;20173;-63
2021/03/08 11:30:10;;;;;;;3.88;3.00;;;19.70;48.70;;;;;;5070730;28;20295;-65
2021/03/08 11:32:36;;;;;;;3.10;2.83;;;19.70;48.70;;;;;;5084945;28;20216;-62
2021/03/08 11:35:02;;;;;;;2.85;2.65;;;19.70;48.70;;;;;;5103477;28;20165;-62
2021/03/08 11:37:30;;;;;;;3.50;3.20;;;19.70;48.70;;;;;;5103990;28;20919;-64
2021/03/08 11:40:04;;;;;;;4.85;3.10;;;19.80;48.60;;;;;;5104265;28;20173;-62
2021/03/08 11:42:29;;;;;;;4.20;2.85;;;19.80;48.50;;;;;;5104040;28;20169;-59
2021/03/08 11:44:55;;;;;;;3.65;3.33;;;19.80;48.40;;;;;;5085799;28;20177;-64
2021/03/08 11:47:21;;;;;;;4.05;3.33;;;19.80;48.30;;;;;;5085811;28;20173;-64
2021/03/08 11:49:47;;;;;;;3.80;2.88;;;19.70;48.30;;;;;;5103621;28;20204;-66
2021/03/08 11:52:12;;;;;;;3.85;3.47;;;19.70;48.60;;;;;;5103976;28;20177;-63
2021/03/08 11:54:38;;;;;;;3.65;3.35;;;19.60;48.60;;;;;;5103685;28;20177;-63
2021/03/08 11:57:08;;;;;;;3.17;2.97;;;19.60;48.70;;;;;;5103625;28;20177;-62
2021/03/08 11:59:34;;;;;;;4.00;3.20;;;19.60;48.70;;;;;;5106559;28;20226;-62
2021/03/08 12:01:59;;;;;;;4.38;3.20;;;19.60;48.80;;;;;;5107306;28;20173;-62
2021/03/08 12:04:25;;;;;;;3.65;2.88;;;19.60;48.80;;;;;;5107094;28;20169;-62
2021/03/08 12:06:50;;;;;;;3.25;2.63;;;19.60;48.80;;;;;;5107172;28;20318;-61
2021/03/08 12:09:16;;;;;;;5.88;3.38;;;19.60;49.00;;;;;;5107040;28;20283;-61
2021/03/08 12:11:42;;;;;;;4.30;2.53;;;19.70;48.80;;;;;;5107372;28;20177;-62
2021/03/08 12:14:07;;;;;;;3.00;2.80;;;19.70;48.80;;;;;;5106896;28;20266;-61
2021/03/08 12:16:33;;;;;;;3.08;2.75;;;19.80;48.80;;;;;;5106678;28;20189;-63
2021/03/08 12:18:59;;;;;;;4.28;2.78;;;19.80;48.80;;;;;;5106570;28;20200;-63
2021/03/08 12:21:25;;;;;;;3.40;3.10;;;19.80;48.70;;;;;;5107115;28;20536;-62
2021/03/08 12:23:51;;;;;;;3.13;2.83;;;19.80;48.80;;;;;;5106032;27;20249;-62
2021/03/08 12:26:18;;;;;;;3.30;3.00;;;19.80;48.80;;;;;;5127241;27;20172;-63
2021/03/08 12:28:43;;;;;;;4.68;3.63;;;19.70;48.80;;;;;;5127408;27;20233;-62
2021/03/08 12:31:09;;;;;;;5.30;3.40;;;19.60;49.00;;;;;;5127547;27;20184;-61
2021/03/08 12:33:37;;;;;;;4.90;3.15;;;19.60;48.70;;;;;;5108488;27;20199;-64
2021/03/08 12:36:04;;;;;;;3.17;2.78;;;19.60;48.80;;;;;;5126959;27;20176;-63
2021/03/08 12:38:29;;;;;;;3.75;3.30;;;19.60;49.60;;;;;;5108819;27;20271;-63
2021/03/08 12:40:55;;;;;;;3.15;2.85;;;19.60;48.90;;;;;;5126835;27;20687;-62
2021/03/08 12:43:20;;;;;;;5.75;3.65;;;19.60;48.80;;;;;;5108537;27;20164;-65
2021/03/08 12:45:46;;;;;;;3.33;3.03;;;19.70;48.80;;;;;;5126502;27;20168;-64
2021/03/08 12:48:11;;;;;;;3.47;3.17;;;19.70;48.70;;;;;;5127039;27;20188;-66
2021/03/08 12:50:37;;;;;;;3.58;3.15;;;19.70;48.60;;;;;;5126604;27;20208;-64
2021/03/08 12:53:03;;;;;;;3.67;3.00;;;19.70;48.60;;;;;;5091299;27;20191;-62
2021/03/08 12:55:28;;;;;;;3.60;3.00;;;19.80;48.80;;;;;;5126786;27;20242;-62